Time;durP1;ratioP1;P1;durP2;ratioP2;P2;SDS_P1;SDS_P2;PMS_P1;PMS_P2;Temp;Humidity;BMP_temperature;BMP_pressure;BME280_temperature;BME280_humidity;BME280_pressure;Samples;Min_cycle;Max_cycle;Signal;HPM_P1;HPM_P2
2022/06/11 00:00:24;;;;;;;16.05;9.10;;;;;;;-145.76;100.00;65039.31;4922571;28;20049;-73
2022/06/11 00:02:50;;;;;;;17.90;10.13;;;;;;;-145.76;100.00;65039.31;4896826;28;20042;-73
2022/06/11 00:05:16;;;;;;;18.17;11.10;;;;;;;-145.76;100.00;65039.31;4919618;28;20149;-73
2022/06/11 00:07:41;;;;;;;21.10;10.25;;;;;;;-145.76;100.00;65039.31;4902986;28;20401;-73
2022/06/11 00:10:08;;;;;;;16.20;9.05;;;;;;;-145.76;100.00;65039.31;4920466;28;20026;-73
2022/06/11 00:12:33;;;;;;;13.88;8.02;;;;;;;-145.76;100.00;65039.31;4903543;28;20066;-73
2022/06/11 00:14:59;;;;;;;14.25;8.70;;;;;;;-145.76;100.00;65039.31;4918223;28;20046;-73
2022/06/11 00:17:25;;;;;;;16.77;7.93;;;;;;;-145.76;100.00;65039.31;4921750;28;20042;-73
2022/06/11 00:19:52;;;;;;;17.40;8.40;;;;;;;-145.76;100.00;65039.31;4903068;28;20049;-74
2022/06/11 00:22:20;;;;;;;13.13;6.38;;;;;;;-145.76;100.00;65039.31;4919960;28;20034;-73
2022/06/11 00:24:46;;;;;;;8.88;4.97;;;;;;;-145.76;100.00;65039.31;4900687;28;20708;-74
2022/06/11 00:27:13;;;;;;;11.15;4.53;;;;;;;-145.76;100.00;65039.31;4921540;28;20044;-73
2022/06/11 00:29:40;;;;;;;10.32;3.58;;;;;;;-145.76;100.00;65039.31;4922101;28;20038;-73
2022/06/11 00:32:07;;;;;;;10.63;3.58;;;;;;;-145.76;100.00;65039.31;4916949;28;20119;-73
2022/06/11 00:34:33;;;;;;;8.93;3.13;;;;;;;-145.76;100.00;65039.31;4904802;28;20050;-74
2022/06/11 00:36:58;;;;;;;12.63;4.30;;;;;;;-145.76;100.00;65039.31;4919316;28;20152;-74
2022/06/11 00:39:27;;;;;;;10.65;3.30;;;;;;;-145.76;100.00;65039.31;4920675;28;20116;-74
2022/06/11 00:41:58;;;;;;;11.30;3.28;;;;;;;-145.76;100.00;65039.31;4905958;28;21111;-74
2022/06/11 00:44:24;;;;;;;11.50;3.92;;;;;;;-145.76;100.00;65039.31;4921385;28;20041;-73
2022/06/11 00:47:08;;;;;;;10.13;3.30;;;;;;;-145.76;100.00;65039.31;4904057;28;20042;-73
2022/06/11 00:49:39;;;;;;;9.57;3.97;;;;;;;-145.76;100.00;65039.31;4919956;28;20518;-74
2022/06/11 00:52:16;;;;;;;10.88;2.88;;;;;;;-145.76;100.00;65039.31;4904602;28;20041;-73
2022/06/11 00:54:45;;;;;;;12.55;3.30;;;;;;;-145.76;100.00;65039.31;4916929;28;20099;-74
2022/06/11 00:57:12;;;;;;;8.93;3.47;;;;;;;-145.76;100.00;65039.31;4917977;28;20868;-74
2022/06/11 00:59:42;;;;;;;13.55;3.55;;;;;;;-145.76;100.00;65039.31;4920662;28;20061;-74
2022/06/11 01:02:08;;;;;;;12.25;3.00;;;;;;;-145.76;100.00;65039.31;4916404;28;20712;-74
2022/06/11 01:04:39;;;;;;;7.57;2.30;;;;;;;-145.76;100.00;65039.31;4890899;28;20170;-73
2022/06/11 01:07:38;;;;;;;8.10;2.67;;;;;;;-145.76;100.00;65039.31;4917558;28;20125;-74
2022/06/11 01:10:20;;;;;;;10.32;2.95;;;;;;;-145.76;100.00;65039.31;4906480;28;20046;-73
2022/06/11 01:12:51;;;;;;;7.28;2.35;;;;;;;-145.76;100.00;65039.31;4914504;28;20045;-73
2022/06/11 01:15:22;;;;;;;11.13;2.85;;;;;;;-145.76;100.00;65039.31;4906735;28;20050;-73
2022/06/11 01:17:50;;;;;;;14.70;2.65;;;;;;;-145.76;100.00;65039.31;4920716;28;20118;-73
2022/06/11 01:20:19;;;;;;;9.02;2.50;;;;;;;-145.76;100.00;65039.31;4899702;28;20042;-73
2022/06/11 01:23:25;;;;;;;13.77;2.63;;;;;;;-145.76;100.00;65039.31;4918947;28;20030;-74
2022/06/11 01:26:09;;;;;;;8.93;2.03;;;;;;;-145.76;100.00;65039.31;4901308;28;21926;-74
2022/06/11 01:28:38;;;;;;;11.40;2.80;;;;;;;-145.76;100.00;65039.31;4918290;28;20046;-74
2022/06/11 01:31:35;;;;;;;8.85;2.53;;;;;;;-145.76;100.00;65039.31;4899960;28;20387;-74
2022/06/11 01:34:27;;;;;;;11.68;2.58;;;;;;;-145.76;100.00;65039.31;4919559;28;20046;-74
2022/06/11 01:36:56;;;;;;;11.18;2.60;;;;;;;-145.76;100.00;65039.31;4907429;28;20042;-74
2022/06/11 01:39:31;;;;;;;13.73;2.60;;;;;;;-145.76;100.00;65039.31;4918137;28;20037;-74
2022/06/11 01:42:04;;;;;;;10.00;2.63;;;;;;;-145.76;100.00;65039.31;4907558;28;20422;-74
2022/06/11 01:44:31;;;;;;;;;;;;;;;-145.76;100.00;65039.31;4923729;28;20111;-74
2022/06/11 01:46:57;;;;;;;9.98;2.85;;;;;;;-145.76;100.00;65039.31;4906388;28;19926;-74
2022/06/11 01:49:23;;;;;;;11.57;2.75;;;;;;;-145.76;100.00;65039.31;4923151;28;20048;-74
2022/06/11 01:52:11;;;;;;;11.20;3.13;;;;;;;-145.76;100.00;65039.31;4923140;28;20584;-74
2022/06/11 01:55:17;;;;;;;12.70;2.53;;;;;;;-145.76;100.00;65039.31;4921579;28;20057;-74
2022/06/11 01:57:50;;;;;;;16.73;3.00;;;;;;;-145.76;100.00;65039.31;4904287;28;20042;-74
2022/06/11 02:00:19;;;;;;;14.70;3.27;;;;;;;-145.76;100.00;65039.31;4921648;28;20067;-74
2022/06/11 02:03:00;;;;;;;11.50;3.17;;;;;;;-145.76;100.00;65039.31;4936486;28;20034;-73
2022/06/11 02:05:34;;;;;;;14.75;2.60;;;;;;;-145.76;100.00;65039.31;4907980;28;20532;-73
2022/06/11 02:08:06;;;;;;;16.15;3.53;;;;;;;-145.76;100.00;65039.31;4922944;28;20056;-74
2022/06/11 02:10:52;;;;;;;15.32;3.13;;;;;;;-145.76;100.00;65039.31;4904905;28;20045;-73
2022/06/11 02:13:27;;;;;;;15.52;3.38;;;;;;;-145.76;100.00;65039.31;4923900;28;20041;-74
2022/06/11 02:15:57;;;;;;;10.25;2.30;;;;;;;-145.76;100.00;65039.31;4909380;28;20095;-74
2022/06/11 02:18:24;;;;;;;16.83;4.00;;;;;;;-145.76;100.00;65039.31;4921473;28;20045;-74
2022/06/11 02:20:55;;;;;;;8.60;3.13;;;;;;;-145.76;100.00;65039.31;4892527;28;21648;-74
2022/06/11 02:23:42;;;;;;;12.38;2.65;;;;;;;-145.76;100.00;65039.31;4921516;28;20080;-74
2022/06/11 02:26:13;;;;;;;14.32;3.28;;;;;;;-145.76;100.00;65039.31;4889058;28;20671;-74
2022/06/11 02:28:42;;;;;;;11.85;3.28;;;;;;;-145.76;100.00;65039.31;4900874;28;20934;-72
2022/06/11 02:31:11;;;;;;;11.30;3.00;;;;;;;-145.76;100.00;65039.31;4902988;28;20651;-73
2022/06/11 02:33:37;;;;;;;12.52;3.50;;;;;;;-145.76;100.00;65039.31;4905426;28;20034;-74
2022/06/11 02:36:17;;;;;;;16.70;3.20;;;;;;;-145.76;100.00;65039.31;4921140;28;20129;-73
2022/06/11 02:38:43;;;;;;;13.00;2.70;;;;;;;-145.76;100.00;65039.31;4907298;28;20042;-73
2022/06/11 02:41:16;;;;;;;10.65;3.03;;;;;;;-145.76;100.00;65039.31;4922188;28;20236;-73
2022/06/11 02:43:42;;;;;;;17.85;3.80;;;;;;;-145.76;100.00;65039.31;4907605;28;20151;-73
2022/06/11 02:48:52;;;;;;;12.05;3.55;;;;;;;-145.76;100.00;65039.31;4907442;28;20033;-73
2022/06/11 02:51:23;;;;;;;15.93;3.70;;;;;;;-145.76;100.00;65039.31;4920743;28;20124;-73
2022/06/11 02:53:49;;;;;;;15.63;3.60;;;;;;;-145.76;100.00;65039.31;4903431;28;20038;-73
2022/06/11 02:56:14;;;;;;;14.82;3.65;;;;;;;-145.76;100.00;65039.31;4935840;28;20038;-74
2022/06/11 02:58:41;;;;;;;11.40;4.00;;;;;;;-145.76;100.00;65039.31;4915344;28;20042;-74
2022/06/11 03:01:07;;;;;;;17.83;4.22;;;;;;;-145.76;100.00;65039.31;4912107;28;20768;-73
2022/06/11 03:03:33;;;;;;;12.95;4.22;;;;;;;-145.76;100.00;65039.31;4921537;28;20045;-73
2022/06/11 03:05:59;;;;;;;14.05;4.22;;;;;;;-145.76;100.00;65039.31;4902721;28;20695;-73
2022/06/11 03:08:25;;;;;;;10.45;3.47;;;;;;;-145.76;100.00;65039.31;4921873;28;20042;-74
2022/06/11 03:10:54;;;;;;;18.25;4.22;;;;;;;-145.76;100.00;65039.31;4902718;28;20049;-73
2022/06/11 03:13:23;;;;;;;10.65;4.43;;;;;;;-145.76;100.00;65039.31;4921614;28;20385;-73
2022/06/11 03:15:49;;;;;;;17.70;5.18;;;;;;;-145.76;100.00;65039.31;4904787;28;20053;-73
2022/06/11 03:18:15;;;;;;;18.38;5.10;;;;;;;-145.76;100.00;65039.31;4920541;28;20132;-73
2022/06/11 03:20:41;;;;;;;19.38;4.53;;;;;;;-145.76;100.00;65039.31;4921635;28;20113;-73
2022/06/11 03:23:07;;;;;;;14.52;4.85;;;;;;;-145.76;100.00;65039.31;4909072;28;21459;-73
2022/06/11 03:25:34;;;;;;;16.83;4.97;;;;;;;-145.76;100.00;65039.31;4936478;28;20041;-73
2022/06/11 03:28:08;;;;;;;13.65;4.68;;;;;;;-145.76;100.00;65039.31;4904241;28;20052;-73
2022/06/11 03:30:33;;;;;;;18.17;4.65;;;;;;;-145.76;100.00;65039.31;4918820;28;20034;-73
2022/06/11 03:32:59;;;;;;;14.45;5.45;;;;;;;-145.76;100.00;65039.31;4909974;28;20052;-73
2022/06/11 03:35:24;;;;;;;17.67;5.82;;;;;;;-145.76;100.00;65039.31;4920979;28;21161;-73
2022/06/11 03:37:50;;;;;;;18.85;5.88;;;;;;;-145.76;100.00;65039.31;4921398;28;20045;-73
2022/06/11 03:40:15;;;;;;;12.43;5.55;;;;;;;-145.76;100.00;65039.31;4920287;28;20111;-73
2022/06/11 03:42:41;;;;;;;15.15;5.93;;;;;;;-145.76;100.00;65039.31;4900958;28;20042;-74
2022/06/11 03:45:08;;;;;;;23.30;6.28;;;;;;;-145.76;100.00;65039.31;4910689;28;20049;-73
2022/06/11 03:47:36;;;;;;;23.48;7.28;;;;;;;-145.76;100.00;65039.31;4921234;28;20123;-73
2022/06/11 03:50:03;;;;;;;16.10;6.28;;;;;;;-145.76;100.00;65039.31;4908174;28;20034;-73
2022/06/11 03:52:30;;;;;;;15.77;6.72;;;;;;;-145.76;100.00;65039.31;4920504;28;20073;-73
2022/06/11 03:54:56;;;;;;;19.08;6.45;;;;;;;-145.76;100.00;65039.31;4907370;28;20085;-73
2022/06/11 03:57:22;;;;;;;15.73;6.20;;;;;;;-145.76;100.00;65039.31;4918924;28;20122;-74
2022/06/11 03:59:48;;;;;;;23.58;6.57;;;;;;;-145.76;100.00;65039.31;4912948;28;20139;-73
2022/06/11 04:02:13;;;;;;;16.58;6.10;;;;;;;-145.76;100.00;65039.31;4893433;28;20215;-74
2022/06/11 04:04:39;;;;;;;17.13;6.00;;;;;;;-145.76;100.00;65039.31;4919992;28;20030;-72
2022/06/11 04:07:05;;;;;;;19.80;7.10;;;;;;;-145.76;100.00;65039.31;4905583;28;20077;-74
2022/06/11 04:09:36;;;;;;;19.50;6.05;;;;;;;-145.76;100.00;65039.31;4920131;28;20034;-74
2022/06/11 04:12:03;;;;;;;17.13;5.70;;;;;;;-145.76;100.00;65039.31;4902594;28;20038;-75
2022/06/11 04:14:29;;;;;;;18.55;5.72;;;;;;;-145.76;100.00;65039.31;4918479;28;20145;-74
2022/06/11 04:16:58;;;;;;;20.17;5.40;;;;;;;-145.76;100.00;65039.31;4901944;28;20046;-74
2022/06/11 04:19:35;;;;;;;22.90;5.50;;;;;;;-145.76;100.00;65039.31;4919475;28;21477;-75
2022/06/11 04:22:02;;;;;;;18.77;5.82;;;;;;;-145.76;100.00;65039.31;4882087;28;21303;-74
2022/06/11 04:24:29;;;;;;;16.75;5.07;;;;;;;-145.76;100.00;65039.31;4909120;28;20120;-74
2022/06/11 04:26:56;;;;;;;23.48;5.28;;;;;;;-145.76;100.00;65039.31;4921053;28;20101;-74
2022/06/11 04:29:25;;;;;;;18.83;5.47;;;;;;;-145.76;100.00;65039.31;4926028;28;20037;-74
2022/06/11 04:31:53;;;;;;;19.08;4.40;;;;;;;-145.76;100.00;65039.31;4923778;28;20140;-74
2022/06/11 04:34:20;;;;;;;17.45;5.40;;;;;;;-145.76;100.00;65039.31;4912040;28;20046;-74
2022/06/11 04:36:47;;;;;;;12.95;4.60;;;;;;;-145.76;100.00;65039.31;4921700;28;20121;-74
2022/06/11 04:39:14;;;;;;;20.75;5.63;;;;;;;-145.76;100.00;65039.31;4900743;28;20084;-74
2022/06/11 04:41:40;;;;;;;18.95;5.60;;;;;;;-145.76;100.00;65039.31;4920776;28;20038;-74
2022/06/11 04:44:06;;;;;;;20.15;4.68;;;;;;;-145.76;100.00;65039.31;4916131;28;20030;-74
2022/06/11 04:46:32;;;;;;;14.98;5.15;;;;;;;-145.76;100.00;65039.31;4906790;28;20056;-74
2022/06/11 04:48:58;;;;;;;16.17;4.57;;;;;;;-145.76;100.00;65039.31;4899781;28;20921;-74
2022/06/11 04:51:24;;;;;;;17.73;5.65;;;;;;;-145.76;100.00;65039.31;4901486;28;20038;-74
2022/06/11 04:53:49;;;;;;;19.25;5.35;;;;;;;-145.76;100.00;65039.31;4920509;28;20157;-74
2022/06/11 04:56:19;;;;;;;22.23;6.18;;;;;;;-145.76;100.00;65039.31;4904791;28;23825;-74
2022/06/11 04:58:45;;;;;;;19.58;6.05;;;;;;;-145.76;100.00;65039.31;4921158;28;20057;-74
2022/06/11 05:01:11;;;;;;;18.20;5.93;;;;;;;-145.76;100.00;65039.31;4903544;28;20519;-74
2022/06/11 05:03:37;;;;;;;21.50;6.93;;;;;;;-145.76;100.00;65039.31;4917047;28;20041;-74
2022/06/11 05:06:03;;;;;;;20.63;6.45;;;;;;;-145.76;100.00;65039.31;4899107;28;20212;-74
2022/06/11 05:08:28;;;;;;;19.13;6.40;;;;;;;-145.76;100.00;65039.31;4904472;28;24137;-74
2022/06/11 05:10:54;;;;;;;17.67;7.63;;;;;;;-145.76;100.00;65039.31;4918382;28;20116;-74
2022/06/11 05:13:19;;;;;;;18.63;6.40;;;;;;;-145.76;100.00;65039.31;4893896;28;20597;-74
2022/06/11 05:15:47;;;;;;;21.50;6.20;;;;;;;-145.76;100.00;65039.31;4912385;28;20046;-74
2022/06/11 05:18:14;;;;;;;19.30;6.05;;;;;;;-145.76;100.00;65039.31;4901152;28;20530;-75
2022/06/11 05:20:40;;;;;;;22.17;5.72;;;;;;;-145.76;100.00;65039.31;4915374;28;20104;-74
2022/06/11 05:23:06;;;;;;;20.73;5.32;;;;;;;-145.76;100.00;65039.31;4912992;28;20045;-75
2022/06/11 05:25:34;;;;;;;21.55;5.82;;;;;;;-145.76;100.00;65039.31;4921421;28;20426;-76
2022/06/11 05:27:59;;;;;;;18.27;4.63;;;;;;;-145.76;100.00;65039.31;4919745;28;20034;-75
2022/06/11 05:30:29;;;;;;;17.10;4.75;;;;;;;-145.76;100.00;65039.31;4904490;28;20528;-76
2022/06/11 05:32:55;;;;;;;21.50;4.75;;;;;;;-145.76;100.00;65039.31;4918749;28;20035;-75
2022/06/11 05:35:24;;;;;;;19.35;5.68;;;;;;;-145.76;100.00;65039.31;4900967;28;20132;-76
2022/06/11 05:37:51;;;;;;;21.35;4.47;;;;;;;-145.76;100.00;65039.31;4917950;28;20067;-77
2022/06/11 05:40:19;;;;;;;19.80;5.10;;;;;;;-145.76;100.00;65039.31;4897721;28;20041;-76
2022/06/11 05:42:47;;;;;;;14.35;4.25;;;;;;;-145.76;100.00;65039.31;4899606;28;20034;-76
2022/06/11 05:45:18;;;;;;;18.83;4.68;;;;;;;-145.76;100.00;65039.31;4931468;28;20050;-77
2022/06/11 05:47:44;;;;;;;18.15;4.45;;;;;;;-145.76;100.00;65039.31;4890372;28;21038;-77
2022/06/11 05:50:12;;;;;;;19.05;5.07;;;;;;;-145.76;100.00;65039.31;4917591;28;20065;-76
2022/06/11 05:52:39;;;;;;;22.38;5.32;;;;;;;-145.76;100.00;65039.31;4902698;28;20042;-76
2022/06/11 05:55:06;;;;;;;23.73;5.38;;;;;;;-145.76;100.00;65039.31;4917093;28;20097;-76
2022/06/11 05:57:31;;;;;;;22.65;5.28;;;;;;;-145.76;100.00;65039.31;4901556;28;20050;-76
2022/06/11 06:00:01;;;;;;;20.10;4.63;;;;;;;-145.76;100.00;65039.31;4901241;28;20120;-76
2022/06/11 06:02:27;;;;;;;23.23;5.53;;;;;;;-145.76;100.00;65039.31;4907340;28;20041;-75
2022/06/11 06:04:53;;;;;;;17.95;4.82;;;;;;;-145.76;100.00;65039.31;4919956;28;20026;-76
2022/06/11 06:07:19;;;;;;;22.25;5.05;;;;;;;-145.76;100.00;65039.31;4935350;28;20069;-75
2022/06/11 06:09:44;;;;;;;23.70;5.85;;;;;;;-145.76;100.00;65039.31;4911393;28;20135;-75
2022/06/11 06:12:09;;;;;;;24.13;5.60;;;;;;;-145.76;100.00;65039.31;4917352;28;20048;-75
2022/06/11 06:14:35;;;;;;;25.23;5.55;;;;;;;-145.76;100.00;65039.31;4890474;28;20065;-75
2022/06/11 06:17:01;;;;;;;24.27;5.88;;;;;;;-145.76;100.00;65039.31;4932964;28;20554;-75
2022/06/11 06:19:26;;;;;;;26.02;6.00;;;;;;;-145.76;100.00;65039.31;4899361;28;20045;-75
2022/06/11 06:21:51;;;;;;;21.20;4.88;;;;;;;-145.76;100.00;65039.31;4914893;28;20045;-73
2022/06/11 06:24:17;;;;;;;26.65;5.47;;;;;;;-145.76;100.00;65039.31;4901908;28;20034;-74
2022/06/11 06:26:42;;;;;;;25.15;6.57;;;;;;;-145.76;100.00;65039.31;4914392;28;20060;-73
2022/06/11 06:29:08;;;;;;;25.52;5.75;;;;;;;-145.76;100.00;65039.31;4921711;28;20045;-73
2022/06/11 06:31:34;;;;;;;21.02;4.90;;;;;;;-145.76;100.00;65039.31;4903096;28;20190;-73
2022/06/11 06:34:01;;;;;;;23.77;5.57;;;;;;;-145.76;100.00;65039.31;4917827;28;21015;-73
2022/06/11 06:36:31;;;;;;;29.17;6.05;;;;;;;-145.76;100.00;65039.31;4907873;28;20034;-73
2022/06/11 06:38:56;;;;;;;24.75;5.78;;;;;;;-145.76;100.00;65039.31;4903645;28;20049;-73
2022/06/11 06:41:22;;;;;;;22.05;5.35;;;;;;;-145.76;100.00;65039.31;4908693;28;20108;-73
2022/06/11 06:43:51;;;;;;;26.67;6.22;;;;;;;-145.76;100.00;65039.31;4923602;28;20470;-73
2022/06/11 06:46:17;;;;;;;22.77;5.80;;;;;;;-145.76;100.00;65039.31;4932032;28;20068;-73
2022/06/11 06:48:43;;;;;;;26.02;6.57;;;;;;;-145.76;100.00;65039.31;4906198;28;20042;-73
2022/06/11 06:51:09;;;;;;;22.10;6.00;;;;;;;-145.76;100.00;65039.31;4934022;28;20112;-73
2022/06/11 06:53:38;;;;;;;20.88;6.05;;;;;;;-145.76;100.00;65039.31;4882613;28;25013;-73
2022/06/11 06:56:04;;;;;;;33.33;7.35;;;;;;;-145.76;100.00;65039.31;4920896;28;20485;-73
2022/06/11 06:58:30;;;;;;;32.80;7.47;;;;;;;-145.76;100.00;65039.31;4908218;28;20950;-73
2022/06/11 07:00:55;;;;;;;29.15;6.70;;;;;;;-145.76;100.00;65039.31;4917830;28;20572;-72
2022/06/11 07:03:21;;;;;;;26.05;6.50;;;;;;;-145.76;100.00;65039.31;4906494;28;20125;-72
2022/06/11 07:05:46;;;;;;;26.70;7.13;;;;;;;-145.76;100.00;65039.31;4920816;28;20036;-72
2022/06/11 07:08:13;;;;;;;36.17;6.97;;;;;;;-145.76;100.00;65039.31;4918947;28;20996;-72
2022/06/11 07:10:38;;;;;;;27.20;6.82;;;;;;;-145.76;100.00;65039.31;4921656;28;20103;-72
2022/06/11 07:13:04;;;;;;;26.67;5.82;;;;;;;-145.76;100.00;65039.31;4919313;28;20046;-73
2022/06/11 07:15:30;;;;;;;29.33;5.78;;;;;;;-145.76;100.00;65039.31;4895665;28;20049;-73
2022/06/11 07:18:08;;;;;;;24.52;5.80;;;;;;;-145.76;100.00;65039.31;4917774;28;20137;-73
2022/06/11 07:20:35;;;;;;;23.67;6.28;;;;;;;-145.76;100.00;65039.31;4904733;28;20052;-73
2022/06/11 07:23:14;;;;;;;27.20;5.93;;;;;;;-145.76;100.00;65039.31;4915662;28;20034;-72
2022/06/11 07:25:41;;;;;;;29.10;6.72;;;;;;;-145.76;100.00;65039.31;4898523;28;20041;-72
2022/06/11 07:28:15;;;;;;;27.58;6.88;;;;;;;-145.76;100.00;65039.31;4916201;28;20108;-72
2022/06/11 07:30:41;;;;;;;24.23;6.30;;;;;;;-145.76;100.00;65039.31;4917024;28;20061;-69
2022/06/11 07:33:13;;;;;;;28.45;6.78;;;;;;;-145.76;100.00;65039.31;4904536;28;20113;-70
2022/06/11 07:35:39;;;;;;;28.35;6.32;;;;;;;-145.76;100.00;65039.31;4897591;28;23886;-71
2022/06/11 07:38:07;;;;;;;19.10;5.00;;;;;;;-145.76;100.00;65039.31;4902633;28;20078;-71
2022/06/11 07:40:34;;;;;;;27.83;6.55;;;;;;;-145.76;100.00;65039.31;4915906;28;23472;-71
2022/06/11 07:43:00;;;;;;;23.75;6.35;;;;;;;-145.76;100.00;65039.31;4904672;28;20505;-72
2022/06/11 07:45:25;;;;;;;29.90;6.55;;;;;;;-145.76;100.00;65039.31;4921169;28;20092;-71
2022/06/11 07:47:54;;;;;;;28.73;7.03;;;;;;;-145.76;100.00;65039.31;4905095;28;20040;-71
2022/06/11 07:50:22;;;;;;;26.05;5.85;;;;;;;-145.76;100.00;65039.31;4920036;28;20045;-71
2022/06/11 07:52:48;;;;;;;29.33;6.55;;;;;;;-145.76;100.00;65039.31;4920355;28;20034;-71
2022/06/11 07:55:13;;;;;;;23.92;6.43;;;;;;;-145.76;100.00;65039.31;4895322;28;20045;-71
2022/06/11 07:57:39;;;;;;;29.02;6.70;;;;;;;-145.76;100.00;65039.31;4911768;28;20034;-71
2022/06/11 08:00:08;;;;;;;26.50;6.45;;;;;;;-145.76;100.00;65039.31;4903527;28;20061;-71
2022/06/11 08:02:34;;;;;;;28.02;6.88;;;;;;;-145.76;100.00;65039.31;4918416;28;20034;-71
2022/06/11 08:05:00;;;;;;;26.83;6.63;;;;;;;-145.76;100.00;65039.31;4903728;28;22384;-71
2022/06/11 08:07:27;;;;;;;26.83;6.30;;;;;;;-145.76;100.00;65039.31;4918803;28;21214;-71
2022/06/11 08:09:53;;;;;;;23.42;6.85;;;;;;;-145.76;100.00;65039.31;4903535;28;20030;-72
2022/06/11 08:12:19;;;;;;;29.35;6.40;;;;;;;-145.76;100.00;65039.31;4918747;28;20038;-72
2022/06/11 08:14:44;;;;;;;32.58;8.77;;;;;;;-145.76;100.00;65039.31;4914809;28;20256;-72
2022/06/11 08:17:10;;;;;;;29.58;7.78;;;;;;;-145.76;100.00;65039.31;4906013;28;20053;-72
2022/06/11 08:19:35;;;;;;;23.17;6.53;;;;;;;-145.76;100.00;65039.31;4917783;28;20045;-72
2022/06/11 08:22:01;;;;;;;22.45;5.88;;;;;;;-145.76;100.00;65039.31;4903981;28;20092;-72
2022/06/11 08:24:26;;;;;;;25.92;6.07;;;;;;;-145.76;100.00;65039.31;4916491;28;20045;-72
2022/06/11 08:26:52;;;;;;;23.83;5.35;;;;;;;-145.76;100.00;65039.31;4903484;28;20057;-72
2022/06/11 08:29:17;;;;;;;23.30;5.80;;;;;;;-145.76;100.00;65039.31;4919128;28;20068;-72
2022/06/11 08:31:42;;;;;;;27.05;6.80;;;;;;;-145.76;100.00;65039.31;4915793;28;20041;-72
2022/06/11 08:34:08;;;;;;;27.98;6.80;;;;;;;-145.76;100.00;65039.31;4905210;28;20049;-72
2022/06/11 08:36:33;;;;;;;25.25;5.40;;;;;;;-145.76;100.00;65039.31;4916576;28;20666;-72
2022/06/11 08:38:59;;;;;;;22.27;5.10;;;;;;;-145.76;100.00;65039.31;4902530;28;20133;-72
2022/06/11 08:41:30;;;;;;;21.65;5.68;;;;;;;-145.76;100.00;65039.31;4915992;28;20121;-72
2022/06/11 08:44:00;;;;;;;27.98;6.78;;;;;;;-145.76;100.00;65039.31;4901505;28;20100;-71
2022/06/11 08:46:28;;;;;;;28.75;6.03;;;;;;;-145.76;100.00;65039.31;4911154;28;20042;-72
2022/06/11 08:49:03;;;;;;;25.60;5.95;;;;;;;-145.76;100.00;65039.31;4904417;28;20465;-71
2022/06/11 08:51:37;;;;;;;26.88;6.25;;;;;;;-145.76;100.00;65039.31;4920766;28;20091;-71
2022/06/11 08:54:07;;;;;;;25.52;5.78;;;;;;;-145.76;100.00;65039.31;4933215;28;20038;-72
2022/06/11 08:56:35;;;;;;;23.38;5.55;;;;;;;-145.76;100.00;65039.31;4923059;28;20038;-72
2022/06/11 08:59:13;;;;;;;20.95;5.15;;;;;;;-145.76;100.00;65039.31;4920468;28;20117;-72
2022/06/11 09:01:46;;;;;;;25.60;6.53;;;;;;;-145.76;100.00;65039.31;4901835;28;20037;-72
2022/06/11 09:04:42;;;;;;;23.50;6.38;;;;;;;-145.76;100.00;65039.31;4916952;28;20037;-72
2022/06/11 09:07:17;;;;;;;22.73;5.20;;;;;;;-145.76;100.00;65039.31;4903726;28;20053;-73
2022/06/11 09:09:51;;;;;;;26.17;5.65;;;;;;;-145.76;100.00;65039.31;4920552;28;20045;-73
2022/06/11 09:12:44;;;;;;;21.48;6.00;;;;;;;-145.76;100.00;65039.31;4893059;28;20048;-71
2022/06/11 09:15:12;;;;;;;18.73;5.20;;;;;;;-145.76;100.00;65039.31;4920965;28;20054;-72
2022/06/11 09:17:47;;;;;;;25.88;5.72;;;;;;;-145.76;100.00;65039.31;4900124;28;20176;-72
2022/06/11 09:20:34;;;;;;;26.85;5.72;;;;;;;-145.76;100.00;65039.31;4915404;28;21845;-71
2022/06/11 09:23:10;;;;;;;27.80;6.32;;;;;;;-145.76;100.00;65039.31;4903720;28;20141;-72
2022/06/11 09:26:21;;;;;;;18.65;5.28;;;;;;;-145.76;100.00;65039.31;4919434;28;20050;-72
2022/06/11 09:29:01;;;;;;;20.33;5.40;;;;;;;-145.76;100.00;65039.31;4847883;28;20082;-72
2022/06/11 09:31:34;;;;;;;20.00;5.25;;;;;;;-145.76;100.00;65039.31;4926550;28;20501;-72
2022/06/11 09:34:12;;;;;;;23.45;5.07;;;;;;;-145.76;100.00;65039.31;4903115;28;20123;-71
2022/06/11 09:36:41;;;;;;;18.63;4.75;;;;;;;-145.76;100.00;65039.31;4917041;28;20041;-71
2022/06/11 09:39:36;;;;;;;23.65;5.38;;;;;;;-145.76;100.00;65039.31;4899490;28;20046;-71
2022/06/11 09:42:14;;;;;;;20.00;5.32;;;;;;;-145.76;100.00;65039.31;4913174;28;20108;-71
2022/06/11 09:44:52;;;;;;;19.20;4.65;;;;;;;-145.76;100.00;65039.31;4901108;28;20049;-72
2022/06/11 09:47:47;;;;;;;20.40;4.63;;;;;;;-145.76;100.00;65039.31;4919361;28;20167;-71
2022/06/11 09:50:26;;;;;;;22.13;4.80;;;;;;;-145.76;100.00;65039.31;4903892;28;20050;-71
2022/06/11 09:53:15;;;;;;;14.07;3.58;;;;;;;-145.76;100.00;65039.31;4915942;28;20489;-71
2022/06/11 09:55:54;;;;;;;17.27;3.38;;;;;;;-145.76;100.00;65039.31;4878472;28;20046;-71
2022/06/11 09:58:35;;;;;;;21.40;4.60;;;;;;;-145.76;100.00;65039.31;4918942;28;20082;-71
2022/06/11 10:01:03;;;;;;;15.43;4.53;;;;;;;-145.76;100.00;65039.31;4907851;28;22477;-72
2022/06/11 10:03:35;;;;;;;16.20;4.40;;;;;;;-145.76;100.00;65039.31;4902896;28;26051;-71
2022/06/11 10:06:08;;;;;;;15.23;4.53;;;;;;;-145.76;100.00;65039.31;4920933;28;20103;-72
2022/06/11 10:08:46;;;;;;;21.27;4.53;;;;;;;-145.76;100.00;65039.31;4923516;28;20289;-71
2022/06/11 10:11:44;;;;;;;16.08;4.38;;;;;;;-145.76;100.00;65039.31;4902637;28;20040;-72
2022/06/11 10:14:28;;;;;;;15.98;3.60;;;;;;;-145.76;100.00;65039.31;4907031;28;20054;-71
2022/06/11 10:17:15;;;;;;;14.98;3.63;;;;;;;-145.76;100.00;65039.31;4921055;28;20034;-72
2022/06/11 10:20:02;;;;;;;17.77;4.63;;;;;;;-145.76;100.00;65039.31;4904533;28;20654;-71
2022/06/11 10:22:35;;;;;;;18.58;4.20;;;;;;;-145.76;100.00;65039.31;4917645;28;20041;-72
2022/06/11 10:25:19;;;;;;;14.15;3.80;;;;;;;-145.76;100.00;65039.31;4899267;28;20050;-72
2022/06/11 10:27:54;;;;;;;19.58;4.28;;;;;;;-145.76;100.00;65039.31;4919257;28;21042;-73
2022/06/11 10:30:31;;;;;;;14.77;4.43;;;;;;;-145.76;100.00;65039.31;4904037;28;20100;-73
2022/06/11 10:32:57;;;;;;;15.73;3.65;;;;;;;-145.76;100.00;65039.31;4932436;28;20033;-71
2022/06/11 10:35:30;;;;;;;14.00;3.60;;;;;;;-145.76;100.00;65039.31;4903504;28;20748;-71
2022/06/11 10:38:23;;;;;;;16.67;3.85;;;;;;;-145.76;100.00;65039.31;4903893;28;20053;-72
2022/06/11 10:40:49;;;;;;;19.98;4.95;;;;;;;-145.76;100.00;65039.31;4889065;28;20046;-74
2022/06/11 10:43:22;;;;;;;13.07;3.85;;;;;;;-145.76;100.00;65039.31;4918033;28;21246;-72
2022/06/11 10:45:48;;;;;;;15.70;4.50;;;;;;;-145.76;100.00;65039.31;4902100;28;20144;-72
2022/06/11 10:48:20;;;;;;;18.40;4.32;;;;;;;-145.76;100.00;65039.31;4918334;28;20156;-72
2022/06/11 10:50:47;;;;;;;20.98;4.30;;;;;;;-145.76;100.00;65039.31;4921705;28;20046;-72
2022/06/11 10:53:21;;;;;;;15.20;3.70;;;;;;;-145.76;100.00;65039.31;4921627;28;20034;-72
2022/06/11 10:56:01;;;;;;;16.75;3.65;;;;;;;-145.76;100.00;65039.31;4918411;28;20049;-72
2022/06/11 10:58:33;;;;;;;17.10;3.92;;;;;;;-145.76;100.00;65039.31;4905963;28;20045;-72
2022/06/11 11:01:32;;;;;;;17.08;4.65;;;;;;;-145.76;100.00;65039.31;4918646;28;20982;-72
2022/06/11 11:04:08;;;;;;;17.20;4.20;;;;;;;-145.76;100.00;65039.31;4901535;28;20127;-72
2022/06/11 11:06:35;;;;;;;17.95;3.92;;;;;;;-145.76;100.00;65039.31;4920053;28;20018;-72
2022/06/11 11:09:11;;;;;;;17.58;4.32;;;;;;;-145.76;100.00;65039.31;4898637;28;20572;-72
2022/06/11 11:11:56;;;;;;;17.10;4.00;;;;;;;-145.76;100.00;65039.31;4921063;28;20049;-73
2022/06/11 11:14:39;;;;;;;13.45;3.70;;;;;;;-145.76;100.00;65039.31;4916266;28;20034;-73
2022/06/11 11:17:16;;;;;;;18.38;4.25;;;;;;;-145.76;100.00;65039.31;4900689;28;20037;-73
2022/06/11 11:22:38;;;;;;;13.95;3.88;;;;;;;-145.76;100.00;65039.31;4918144;28;20155;-73